sensor_id;sensor_type;location;lat;lon;timestamp;temperature;humidity
63013;DHT22;62113;45.624;11.700;2023-02-03T00:00:50;5.50;66.90
63013;DHT22;62113;45.624;11.700;2023-02-03T00:03:16;5.50;67.00
63013;DHT22;62113;45.624;11.700;2023-02-03T00:05:42;5.50;67.00
63013;DHT22;62113;45.624;11.700;2023-02-03T00:08:08;5.50;66.80
63013;DHT22;62113;45.624;11.700;2023-02-03T00:10:36;5.50;66.90
63013;DHT22;62113;45.624;11.700;2023-02-03T00:13:03;5.50;67.00
63013;DHT22;62113;45.624;11.700;2023-02-03T00:15:29;5.50;67.10
63013;DHT22;62113;45.624;11.700;2023-02-03T00:17:54;5.50;67.20
63013;DHT22;62113;45.624;11.700;2023-02-03T00:20:21;5.50;66.90
63013;DHT22;62113;45.624;11.700;2023-02-03T00:22:47;5.50;66.70
63013;DHT22;62113;45.624;11.700;2023-02-03T00:25:12;5.40;66.70
63013;DHT22;62113;45.624;11.700;2023-02-03T00:27:38;5.40;66.70
63013;DHT22;62113;45.624;11.700;2023-02-03T00:30:04;5.30;66.80
63013;DHT22;62113;45.624;11.700;2023-02-03T00:32:30;5.30;66.70
63013;DHT22;62113;45.624;11.700;2023-02-03T00:34:55;5.30;66.60
63013;DHT22;62113;45.624;11.700;2023-02-03T00:37:21;5.30;66.60
63013;DHT22;62113;45.624;11.700;2023-02-03T00:39:48;5.20;66.70
63013;DHT22;62113;45.624;11.700;2023-02-03T00:42:14;5.20;66.60
63013;DHT22;62113;45.624;11.700;2023-02-03T00:44:40;5.20;66.80
63013;DHT22;62113;45.624;11.700;2023-02-03T00:47:05;5.10;66.70
63013;DHT22;62113;45.624;11.700;2023-02-03T00:49:31;5.10;66.80
63013;DHT22;62113;45.624;11.700;2023-02-03T00:51:57;5.10;66.90
63013;DHT22;62113;45.624;11.700;2023-02-03T00:54:22;5.10;67.00
63013;DHT22;62113;45.624;11.700;2023-02-03T00:56:48;5.10;67.00
63013;DHT22;62113;45.624;11.700;2023-02-03T00:59:13;5.00;67.00
63013;DHT22;62113;45.624;11.700;2023-02-03T01:01:39;5.10;67.10
63013;DHT22;62113;45.624;11.700;2023-02-03T01:04:05;5.00;67.20
63013;DHT22;62113;45.624;11.700;2023-02-03T01:06:30;4.90;67.20
63013;DHT22;62113;45.624;11.700;2023-02-03T01:08:56;4.80;67.30
63013;DHT22;62113;45.624;11.700;2023-02-03T01:11:23;4.80;67.50
63013;DHT22;62113;45.624;11.700;2023-02-03T01:13:50;4.80;67.50
63013;DHT22;62113;45.624;11.700;2023-02-03T01:16:19;4.80;67.60
63013;DHT22;62113;45.624;11.700;2023-02-03T01:18:45;4.80;67.90
63013;DHT22;62113;45.624;11.700;2023-02-03T01:21:14;4.80;67.80
63013;DHT22;62113;45.624;11.700;2023-02-03T01:23:40;4.90;67.70
63013;DHT22;62113;45.624;11.700;2023-02-03T01:26:09;4.90;67.50
63013;DHT22;62113;45.624;11.700;2023-02-03T01:28:35;4.90;67.40
63013;DHT22;62113;45.624;11.700;2023-02-03T01:31:30;4.90;67.40
63013;DHT22;62113;45.624;11.700;2023-02-03T01:33:56;4.80;67.40
63013;DHT22;62113;45.624;11.700;2023-02-03T01:36:24;4.90;67.30
63013;DHT22;62113;45.624;11.700;2023-02-03T01:38:50;4.80;67.40
63013;DHT22;62113;45.624;11.700;2023-02-03T01:41:24;4.80;67.30
63013;DHT22;62113;45.624;11.700;2023-02-03T01:43:53;4.80;67.30
63013;DHT22;62113;45.624;11.700;2023-02-03T01:46:35;4.80;67.30
63013;DHT22;62113;45.624;11.700;2023-02-03T01:49:07;4.80;67.40
63013;DHT22;62113;45.624;11.700;2023-02-03T01:51:36;4.80;67.30
63013;DHT22;62113;45.624;11.700;2023-02-03T01:54:03;4.80;67.30
63013;DHT22;62113;45.624;11.700;2023-02-03T01:56:31;4.70;67.30
63013;DHT22;62113;45.624;11.700;2023-02-03T01:58:57;4.70;67.30
63013;DHT22;62113;45.624;11.700;2023-02-03T02:01:25;4.60;67.50
63013;DHT22;62113;45.624;11.700;2023-02-03T02:03:56;4.70;67.70
63013;DHT22;62113;45.624;11.700;2023-02-03T02:06:24;4.60;67.70
63013;DHT22;62113;45.624;11.700;2023-02-03T02:08:51;4.50;67.80
63013;DHT22;62113;45.624;11.700;2023-02-03T02:11:17;4.50;68.10
63013;DHT22;62113;45.624;11.700;2023-02-03T02:13:46;4.60;68.20
63013;DHT22;62113;45.624;11.700;2023-02-03T02:17:00;4.60;68.20
63013;DHT22;62113;45.624;11.700;2023-02-03T02:21:55;4.60;68.10
63013;DHT22;62113;45.624;11.700;2023-02-03T02:41:54;4.60;67.80
63013;DHT22;62113;45.624;11.700;2023-02-03T02:46:24;4.60;67.40
63013;DHT22;62113;45.624;11.700;2023-02-03T02:49:03;4.60;67.30
63013;DHT22;62113;45.624;11.700;2023-02-03T02:51:30;4.50;67.20
63013;DHT22;62113;45.624;11.700;2023-02-03T02:54:01;4.50;67.30
63013;DHT22;62113;45.624;11.700;2023-02-03T02:56:29;4.50;67.40
63013;DHT22;62113;45.624;11.700;2023-02-03T02:58:57;4.50;67.70
63013;DHT22;62113;45.624;11.700;2023-02-03T03:01:23;4.50;67.70
63013;DHT22;62113;45.624;11.700;2023-02-03T03:03:49;4.50;67.80
63013;DHT22;62113;45.624;11.700;2023-02-03T03:06:25;4.50;67.70
63013;DHT22;62113;45.624;11.700;2023-02-03T03:08:54;4.40;67.70
63013;DHT22;62113;45.624;11.700;2023-02-03T03:11:23;4.50;68.00
63013;DHT22;62113;45.624;11.700;2023-02-03T03:13:51;4.50;67.90
63013;DHT22;62113;45.624;11.700;2023-02-03T03:16:22;4.60;68.10
63013;DHT22;62113;45.624;11.700;2023-02-03T03:18:54;4.60;68.10
63013;DHT22;62113;45.624;11.700;2023-02-03T03:21:25;4.60;68.00
63013;DHT22;62113;45.624;11.700;2023-02-03T03:23:54;4.60;68.10
63013;DHT22;62113;45.624;11.700;2023-02-03T03:29:11;4.70;68.00
63013;DHT22;62113;45.624;11.700;2023-02-03T03:31:39;4.70;68.40
63013;DHT22;62113;45.624;11.700;2023-02-03T03:34:07;4.80;68.10
63013;DHT22;62113;45.624;11.700;2023-02-03T03:39:43;4.80;68.40
63013;DHT22;62113;45.624;11.700;2023-02-03T03:42:22;4.80;68.20
63013;DHT22;62113;45.624;11.700;2023-02-03T03:47:47;4.90;68.40
63013;DHT22;62113;45.624;11.700;2023-02-03T03:50:24;4.90;68.40
63013;DHT22;62113;45.624;11.700;2023-02-03T03:52:50;4.80;68.40
63013;DHT22;62113;45.624;11.700;2023-02-03T03:55:17;4.90;68.40
63013;DHT22;62113;45.624;11.700;2023-02-03T04:00:27;5.00;68.20
63013;DHT22;62113;45.624;11.700;2023-02-03T04:02:57;5.00;68.10
63013;DHT22;62113;45.624;11.700;2023-02-03T04:05:24;5.00;68.20
63013;DHT22;62113;45.624;11.700;2023-02-03T04:07:51;4.90;68.30
63013;DHT22;62113;45.624;11.700;2023-02-03T04:10:24;5.00;68.20
63013;DHT22;62113;45.624;11.700;2023-02-03T04:12:51;5.00;68.30
63013;DHT22;62113;45.624;11.700;2023-02-03T04:15:17;5.00;68.40
63013;DHT22;62113;45.624;11.700;2023-02-03T04:17:42;5.00;68.30
63013;DHT22;62113;45.624;11.700;2023-02-03T04:20:08;5.00;68.30
63013;DHT22;62113;45.624;11.700;2023-02-03T04:22:34;5.00;68.40
63013;DHT22;62113;45.624;11.700;2023-02-03T04:25:00;5.00;68.60
63013;DHT22;62113;45.624;11.700;2023-02-03T04:27:26;5.10;68.80
63013;DHT22;62113;45.624;11.700;2023-02-03T04:29:52;5.10;68.80
63013;DHT22;62113;45.624;11.700;2023-02-03T04:32:18;5.20;68.70
63013;DHT22;62113;45.624;11.700;2023-02-03T04:34:44;5.20;68.70
63013;DHT22;62113;45.624;11.700;2023-02-03T04:37:10;5.20;68.90
63013;DHT22;62113;45.624;11.700;2023-02-03T04:39:35;5.20;68.70
63013;DHT22;62113;45.624;11.700;2023-02-03T04:42:01;5.20;69.00
63013;DHT22;62113;45.624;11.700;2023-02-03T04:44:27;5.30;68.80
63013;DHT22;62113;45.624;11.700;2023-02-03T04:46:52;5.30;69.20
63013;DHT22;62113;45.624;11.700;2023-02-03T04:49:18;5.30;69.00
63013;DHT22;62113;45.624;11.700;2023-02-03T04:51:43;5.40;69.10
63013;DHT22;62113;45.624;11.700;2023-02-03T04:54:10;5.30;69.00
63013;DHT22;62113;45.624;11.700;2023-02-03T04:56:37;5.40;68.90
63013;DHT22;62113;45.624;11.700;2023-02-03T04:59:03;5.40;69.10
63013;DHT22;62113;45.624;11.700;2023-02-03T05:01:28;5.40;68.90
63013;DHT22;62113;45.624;11.700;2023-02-03T05:03:54;5.50;68.90
63013;DHT22;62113;45.624;11.700;2023-02-03T05:06:24;5.50;69.00
63013;DHT22;62113;45.624;11.700;2023-02-03T05:08:51;5.50;68.90
63013;DHT22;62113;45.624;11.700;2023-02-03T05:11:16;5.50;68.80
63013;DHT22;62113;45.624;11.700;2023-02-03T05:13:42;5.50;68.80
63013;DHT22;62113;45.624;11.700;2023-02-03T05:16:08;5.50;69.20
63013;DHT22;62113;45.624;11.700;2023-02-03T05:18:33;5.50;69.30
63013;DHT22;62113;45.624;11.700;2023-02-03T05:20:59;5.60;69.10
63013;DHT22;62113;45.624;11.700;2023-02-03T05:23:25;5.50;68.90
63013;DHT22;62113;45.624;11.700;2023-02-03T05:25:50;5.50;69.30
63013;DHT22;62113;45.624;11.700;2023-02-03T05:28:16;5.50;69.50
63013;DHT22;62113;45.624;11.700;2023-02-03T05:30:42;5.50;69.10
63013;DHT22;62113;45.624;11.700;2023-02-03T05:33:07;5.50;69.20
63013;DHT22;62113;45.624;11.700;2023-02-03T05:35:33;5.50;69.00
63013;DHT22;62113;45.624;11.700;2023-02-03T05:37:59;5.50;69.10
63013;DHT22;62113;45.624;11.700;2023-02-03T05:40:25;5.50;69.20
63013;DHT22;62113;45.624;11.700;2023-02-03T05:43:09;5.50;69.30
63013;DHT22;62113;45.624;11.700;2023-02-03T05:45:34;5.50;69.30
63013;DHT22;62113;45.624;11.700;2023-02-03T05:48:00;5.50;69.40
63013;DHT22;62113;45.624;11.700;2023-02-03T05:50:29;5.50;69.40
63013;DHT22;62113;45.624;11.700;2023-02-03T05:52:58;5.50;69.40
63013;DHT22;62113;45.624;11.700;2023-02-03T05:55:25;5.50;69.40
63013;DHT22;62113;45.624;11.700;2023-02-03T05:57:50;5.50;69.60
63013;DHT22;62113;45.624;11.700;2023-02-03T06:00:16;5.50;69.70
63013;DHT22;62113;45.624;11.700;2023-02-03T06:02:42;5.50;70.00
63013;DHT22;62113;45.624;11.700;2023-02-03T06:05:08;5.50;69.80
63013;DHT22;62113;45.624;11.700;2023-02-03T06:07:33;5.50;69.80
63013;DHT22;62113;45.624;11.700;2023-02-03T06:09:59;5.60;69.80
63013;DHT22;62113;45.624;11.700;2023-02-03T06:12:25;5.60;70.00
63013;DHT22;62113;45.624;11.700;2023-02-03T06:14:50;5.60;69.90
63013;DHT22;62113;45.624;11.700;2023-02-03T06:17:16;5.70;70.00
63013;DHT22;62113;45.624;11.700;2023-02-03T06:19:42;5.70;70.20
63013;DHT22;62113;45.624;11.700;2023-02-03T06:22:07;5.70;70.40
63013;DHT22;62113;45.624;11.700;2023-02-03T06:24:33;5.70;70.40
63013;DHT22;62113;45.624;11.700;2023-02-03T06:26:58;5.70;70.40
63013;DHT22;62113;45.624;11.700;2023-02-03T06:29:24;5.70;70.30
63013;DHT22;62113;45.624;11.700;2023-02-03T06:31:49;5.80;70.30
63013;DHT22;62113;45.624;11.700;2023-02-03T06:34:15;5.80;70.50
63013;DHT22;62113;45.624;11.700;2023-02-03T06:36:40;5.80;70.70
63013;DHT22;62113;45.624;11.700;2023-02-03T06:39:06;5.80;70.80
63013;DHT22;62113;45.624;11.700;2023-02-03T06:41:32;5.80;70.80
63013;DHT22;62113;45.624;11.700;2023-02-03T06:43:57;5.90;70.50
63013;DHT22;62113;45.624;11.700;2023-02-03T06:46:23;5.90;70.40
63013;DHT22;62113;45.624;11.700;2023-02-03T06:48:53;5.90;71.10
63013;DHT22;62113;45.624;11.700;2023-02-03T06:51:19;6.00;71.30
63013;DHT22;62113;45.624;11.700;2023-02-03T06:53:44;6.00;71.10
63013;DHT22;62113;45.624;11.700;2023-02-03T06:56:10;6.00;70.80
63013;DHT22;62113;45.624;11.700;2023-02-03T06:58:35;6.00;70.80
63013;DHT22;62113;45.624;11.700;2023-02-03T07:01:01;6.10;71.50
63013;DHT22;62113;45.624;11.700;2023-02-03T07:03:27;6.10;71.70
63013;DHT22;62113;45.624;11.700;2023-02-03T07:05:52;6.10;71.80
63013;DHT22;62113;45.624;11.700;2023-02-03T07:08:18;6.10;71.40
63013;DHT22;62113;45.624;11.700;2023-02-03T07:10:44;6.20;71.60
63013;DHT22;62113;45.624;11.700;2023-02-03T07:13:09;6.20;72.30
63013;DHT22;62113;45.624;11.700;2023-02-03T07:15:35;6.20;71.50
63013;DHT22;62113;45.624;11.700;2023-02-03T07:18:00;6.20;71.80
63013;DHT22;62113;45.624;11.700;2023-02-03T07:20:26;6.30;71.90
63013;DHT22;62113;45.624;11.700;2023-02-03T07:22:56;6.30;72.00
63013;DHT22;62113;45.624;11.700;2023-02-03T07:25:23;6.30;71.50
63013;DHT22;62113;45.624;11.700;2023-02-03T07:27:49;6.30;72.00
63013;DHT22;62113;45.624;11.700;2023-02-03T07:30:15;6.40;71.70
63013;DHT22;62113;45.624;11.700;2023-02-03T07:32:44;6.40;71.70
63013;DHT22;62113;45.624;11.700;2023-02-03T07:35:10;6.40;72.00
63013;DHT22;62113;45.624;11.700;2023-02-03T07:37:35;6.40;72.70
63013;DHT22;62113;45.624;11.700;2023-02-03T07:40:01;6.40;72.20
63013;DHT22;62113;45.624;11.700;2023-02-03T07:42:27;6.50;72.00
63013;DHT22;62113;45.624;11.700;2023-02-03T07:44:52;6.50;72.30
63013;DHT22;62113;45.624;11.700;2023-02-03T07:47:18;6.50;71.70
63013;DHT22;62113;45.624;11.700;2023-02-03T07:49:43;6.50;71.80
63013;DHT22;62113;45.624;11.700;2023-02-03T07:52:09;6.70;72.30
63013;DHT22;62113;45.624;11.700;2023-02-03T07:54:34;6.70;72.10
63013;DHT22;62113;45.624;11.700;2023-02-03T07:57:00;6.80;72.60
63013;DHT22;62113;45.624;11.700;2023-02-03T07:59:26;7.00;72.40
63013;DHT22;62113;45.624;11.700;2023-02-03T08:01:51;7.10;72.30
63013;DHT22;62113;45.624;11.700;2023-02-03T08:04:21;7.20;72.00
63013;DHT22;62113;45.624;11.700;2023-02-03T08:06:46;7.40;71.70
63013;DHT22;62113;45.624;11.700;2023-02-03T08:09:12;7.50;71.30
63013;DHT22;62113;45.624;11.700;2023-02-03T08:11:37;7.70;71.10
63013;DHT22;62113;45.624;11.700;2023-02-03T08:14:03;7.70;71.10
63013;DHT22;62113;45.624;11.700;2023-02-03T08:16:29;7.90;71.00
63013;DHT22;62113;45.624;11.700;2023-02-03T08:18:54;8.20;70.70
63013;DHT22;62113;45.624;11.700;2023-02-03T08:21:20;8.40;70.10
63013;DHT22;62113;45.624;11.700;2023-02-03T08:23:46;8.60;69.50
63013;DHT22;62113;45.624;11.700;2023-02-03T08:26:11;8.80;69.00
63013;DHT22;62113;45.624;11.700;2023-02-03T08:28:37;9.10;68.30
63013;DHT22;62113;45.624;11.700;2023-02-03T08:31:09;9.30;67.50
63013;DHT22;62113;45.624;11.700;2023-02-03T08:33:34;9.60;66.60
63013;DHT22;62113;45.624;11.700;2023-02-03T08:36:00;9.80;66.00
63013;DHT22;62113;45.624;11.700;2023-02-03T08:38:27;10.10;66.00
63013;DHT22;62113;45.624;11.700;2023-02-03T08:40:52;10.30;64.70
63013;DHT22;62113;45.624;11.700;2023-02-03T08:43:19;10.50;64.10
63013;DHT22;62113;45.624;11.700;2023-02-03T08:45:44;10.70;63.90
63013;DHT22;62113;45.624;11.700;2023-02-03T08:48:10;11.00;62.40
63013;DHT22;62113;45.624;11.700;2023-02-03T08:50:36;11.20;61.80
63013;DHT22;62113;45.624;11.700;2023-02-03T08:53:01;11.40;61.70
63013;DHT22;62113;45.624;11.700;2023-02-03T08:55:27;11.70;61.00
63013;DHT22;62113;45.624;11.700;2023-02-03T08:57:53;11.80;60.70
63013;DHT22;62113;45.624;11.700;2023-02-03T09:00:19;12.10;60.40
63013;DHT22;62113;45.624;11.700;2023-02-03T09:02:44;12.30;60.80
63013;DHT22;62113;45.624;11.700;2023-02-03T09:05:10;12.50;58.70
63013;DHT22;62113;45.624;11.700;2023-02-03T09:07:36;12.70;59.10
63013;DHT22;62113;45.624;11.700;2023-02-03T09:10:02;12.90;59.20
63013;DHT22;62113;45.624;11.700;2023-02-03T09:12:28;13.10;58.40
63013;DHT22;62113;45.624;11.700;2023-02-03T09:14:53;13.30;57.40
63013;DHT22;62113;45.624;11.700;2023-02-03T09:17:19;13.50;57.00
63013;DHT22;62113;45.624;11.700;2023-02-03T09:19:45;13.70;56.50
63013;DHT22;62113;45.624;11.700;2023-02-03T09:22:10;13.80;56.40
63013;DHT22;62113;45.624;11.700;2023-02-03T09:24:36;14.00;55.50
63013;DHT22;62113;45.624;11.700;2023-02-03T09:27:01;14.30;56.00
63013;DHT22;62113;45.624;11.700;2023-02-03T09:29:27;14.70;56.70
63013;DHT22;62113;45.624;11.700;2023-02-03T09:31:53;15.20;55.70
63013;DHT22;62113;45.624;11.700;2023-02-03T09:34:19;15.70;53.30
63013;DHT22;62113;45.624;11.700;2023-02-03T09:36:46;16.00;52.20
63013;DHT22;62113;45.624;11.700;2023-02-03T09:39:12;16.40;51.20
63013;DHT22;62113;45.624;11.700;2023-02-03T09:47:21;18.20;48.10
63013;DHT22;62113;45.624;11.700;2023-02-03T09:50:00;18.90;46.00
63013;DHT22;62113;45.624;11.700;2023-02-03T09:52:32;19.30;46.40
63013;DHT22;62113;45.624;11.700;2023-02-03T09:57:29;20.00;42.40
63013;DHT22;62113;45.624;11.700;2023-02-03T09:59:58;20.30;43.00
63013;DHT22;62113;45.624;11.700;2023-02-03T10:02:44;20.80;41.40
63013;DHT22;62113;45.624;11.700;2023-02-03T10:08:58;21.40;39.40
63013;DHT22;62113;45.624;11.700;2023-02-03T10:17:38;22.60;36.30
63013;DHT22;62113;45.624;11.700;2023-02-03T10:20:42;23.00;36.50
63013;DHT22;62113;45.624;11.700;2023-02-03T10:23:16;23.30;35.90
63013;DHT22;62113;45.624;11.700;2023-02-03T10:25:50;23.60;35.60
63013;DHT22;62113;45.624;11.700;2023-02-03T10:28:30;23.80;35.20
63013;DHT22;62113;45.624;11.700;2023-02-03T10:31:00;24.10;35.00
63013;DHT22;62113;45.624;11.700;2023-02-03T10:33:30;24.30;33.10
63013;DHT22;62113;45.624;11.700;2023-02-03T10:36:03;24.60;33.60
63013;DHT22;62113;45.624;11.700;2023-02-03T10:41:14;25.20;30.60
63013;DHT22;62113;45.624;11.700;2023-02-03T10:43:40;25.50;31.60
63013;DHT22;62113;45.624;11.700;2023-02-03T10:46:17;25.60;30.80
63013;DHT22;62113;45.624;11.700;2023-02-03T10:48:43;25.30;31.50
63013;DHT22;62113;45.624;11.700;2023-02-03T10:54:01;24.40;31.90
63013;DHT22;62113;45.624;11.700;2023-02-03T10:56:34;24.20;31.80
63013;DHT22;62113;45.624;11.700;2023-02-03T10:59:00;23.90;32.00
63013;DHT22;62113;45.624;11.700;2023-02-03T11:01:46;23.20;33.00
63013;DHT22;62113;45.624;11.700;2023-02-03T11:04:28;22.30;34.20
63013;DHT22;62113;45.624;11.700;2023-02-03T11:06:57;21.50;35.30
63013;DHT22;62113;45.624;11.700;2023-02-03T11:09:38;20.80;36.50
63013;DHT22;62113;45.624;11.700;2023-02-03T11:12:13;20.20;37.50
63013;DHT22;62113;45.624;11.700;2023-02-03T11:14:47;19.70;38.40
63013;DHT22;62113;45.624;11.700;2023-02-03T11:17:24;19.20;38.90
63013;DHT22;62113;45.624;11.700;2023-02-03T11:20:12;18.90;40.30
63013;DHT22;62113;45.624;11.700;2023-02-03T11:22:39;18.50;40.60
63013;DHT22;62113;45.624;11.700;2023-02-03T11:25:25;18.00;40.80
63013;DHT22;62113;45.624;11.700;2023-02-03T11:27:53;17.40;41.70
63013;DHT22;62113;45.624;11.700;2023-02-03T11:30:25;17.10;42.60
63013;DHT22;62113;45.624;11.700;2023-02-03T11:32:52;17.00;43.20
63013;DHT22;62113;45.624;11.700;2023-02-03T11:37:49;17.00;43.80
63013;DHT22;62113;45.624;11.700;2023-02-03T11:42:44;17.10;43.90
63013;DHT22;62113;45.624;11.700;2023-02-03T11:58:56;17.20;44.50
63013;DHT22;62113;45.624;11.700;2023-02-03T12:07:14;16.70;45.70
63013;DHT22;62113;45.624;11.700;2023-02-03T12:26:38;16.20;46.80
63013;DHT22;62113;45.624;11.700;2023-02-03T12:29:16;16.10;47.10
63013;DHT22;62113;45.624;11.700;2023-02-03T12:31:55;16.00;47.60
63013;DHT22;62113;45.624;11.700;2023-02-03T12:34:49;15.90;47.70
63013;DHT22;62113;45.624;11.700;2023-02-03T12:37:26;15.80;48.50
63013;DHT22;62113;45.624;11.700;2023-02-03T12:39:59;15.60;48.30
63013;DHT22;62113;45.624;11.700;2023-02-03T12:42:34;15.50;48.40
63013;DHT22;62113;45.624;11.700;2023-02-03T12:45:08;15.40;49.00
63013;DHT22;62113;45.624;11.700;2023-02-03T12:47:37;15.40;49.30
63013;DHT22;62113;45.624;11.700;2023-02-03T12:53:13;15.50;49.40
63013;DHT22;62113;45.624;11.700;2023-02-03T12:55:45;15.60;49.50
63013;DHT22;62113;45.624;11.700;2023-02-03T12:58:24;15.40;49.30
63013;DHT22;62113;45.624;11.700;2023-02-03T13:01:02;15.20;49.50
63013;DHT22;62113;45.624;11.700;2023-02-03T13:06:27;14.80;50.60
63013;DHT22;62113;45.624;11.700;2023-02-03T13:16:52;14.70;51.60
63013;DHT22;62113;45.624;11.700;2023-02-03T13:19:27;14.80;51.70
63013;DHT22;62113;45.624;11.700;2023-02-03T13:21:54;14.80;51.90
63013;DHT22;62113;45.624;11.700;2023-02-03T13:24:23;14.70;51.50
63013;DHT22;62113;45.624;11.700;2023-02-03T13:27:09;14.70;51.50
63013;DHT22;62113;45.624;11.700;2023-02-03T13:29:57;14.70;52.00
63013;DHT22;62113;45.624;11.700;2023-02-03T13:43:44;14.10;55.10
63013;DHT22;62113;45.624;11.700;2023-02-03T13:46:24;13.70;56.40
63013;DHT22;62113;45.624;11.700;2023-02-03T13:48:51;13.50;56.80
63013;DHT22;62113;45.624;11.700;2023-02-03T13:51:23;13.50;56.40
63013;DHT22;62113;45.624;11.700;2023-02-03T13:53:51;13.50;56.40
63013;DHT22;62113;45.624;11.700;2023-02-03T13:56:24;13.60;56.10
63013;DHT22;62113;45.624;11.700;2023-02-03T13:59:29;13.60;56.10
63013;DHT22;62113;45.624;11.700;2023-02-03T14:15:30;13.70;55.40
63013;DHT22;62113;45.624;11.700;2023-02-03T14:20:37;13.60;55.20
63013;DHT22;62113;45.624;11.700;2023-02-03T14:25:31;13.50;55.70
63013;DHT22;62113;45.624;11.700;2023-02-03T14:28:01;13.50;56.10
63013;DHT22;62113;45.624;11.700;2023-02-03T14:30:28;13.40;56.70
63013;DHT22;62113;45.624;11.700;2023-02-03T14:33:01;13.30;57.00
63013;DHT22;62113;45.624;11.700;2023-02-03T14:38:01;13.10;57.70
63013;DHT22;62113;45.624;11.700;2023-02-03T14:40:47;13.00;58.00
63013;DHT22;62113;45.624;11.700;2023-02-03T14:59:47;12.90;58.60
63013;DHT22;62113;45.624;11.700;2023-02-03T15:02:23;12.80;58.80
63013;DHT22;62113;45.624;11.700;2023-02-03T15:04:52;12.80;58.90
63013;DHT22;62113;45.624;11.700;2023-02-03T15:07:38;12.70;58.60
63013;DHT22;62113;45.624;11.700;2023-02-03T15:12:46;12.60;58.60
63013;DHT22;62113;45.624;11.700;2023-02-03T15:15:39;12.60;58.70
63013;DHT22;62113;45.624;11.700;2023-02-03T15:20:54;12.40;58.60
63013;DHT22;62113;45.624;11.700;2023-02-03T15:23:25;12.40;59.00
63013;DHT22;62113;45.624;11.700;2023-02-03T15:26:00;12.40;59.00
63013;DHT22;62113;45.624;11.700;2023-02-03T15:28:28;12.30;59.20
63013;DHT22;62113;45.624;11.700;2023-02-03T15:31:01;12.20;59.40
63013;DHT22;62113;45.624;11.700;2023-02-03T15:33:30;12.20;59.90
63013;DHT22;62113;45.624;11.700;2023-02-03T15:36:03;12.10;59.60
63013;DHT22;62113;45.624;11.700;2023-02-03T15:38:37;12.10;59.70
63013;DHT22;62113;45.624;11.700;2023-02-03T15:41:07;12.00;60.20
63013;DHT22;62113;45.624;11.700;2023-02-03T15:43:37;11.90;60.40
63013;DHT22;62113;45.624;11.700;2023-02-03T15:48:51;11.80;60.40
63013;DHT22;62113;45.624;11.700;2023-02-03T15:51:29;11.80;60.40
63013;DHT22;62113;45.624;11.700;2023-02-03T15:54:03;11.70;60.80
63013;DHT22;62113;45.624;11.700;2023-02-03T15:56:45;11.70;60.70
63013;DHT22;62113;45.624;11.700;2023-02-03T15:59:30;11.70;60.90
63013;DHT22;62113;45.624;11.700;2023-02-03T16:01:56;11.60;61.00
63013;DHT22;62113;45.624;11.700;2023-02-03T16:04:24;11.50;60.80
63013;DHT22;62113;45.624;11.700;2023-02-03T16:06:51;11.50;61.00
63013;DHT22;62113;45.624;11.700;2023-02-03T16:09:40;11.50;61.00
63013;DHT22;62113;45.624;11.700;2023-02-03T16:12:31;11.40;61.10
63013;DHT22;62113;45.624;11.700;2023-02-03T16:14:59;11.40;61.70
63013;DHT22;62113;45.624;11.700;2023-02-03T16:17:32;11.40;61.70
63013;DHT22;62113;45.624;11.700;2023-02-03T16:23:00;11.30;61.90
63013;DHT22;62113;45.624;11.700;2023-02-03T16:25:28;11.20;62.30
63013;DHT22;62113;45.624;11.700;2023-02-03T16:31:02;11.20;62.20
63013;DHT22;62113;45.624;11.700;2023-02-03T16:33:52;11.10;62.30
63013;DHT22;62113;45.624;11.700;2023-02-03T16:36:42;11.00;63.10
63013;DHT22;62113;45.624;11.700;2023-02-03T16:39:26;11.00;63.10
63013;DHT22;62113;45.624;11.700;2023-02-03T16:42:17;10.90;62.60
63013;DHT22;62113;45.624;11.700;2023-02-03T16:45:02;10.90;62.70
63013;DHT22;62113;45.624;11.700;2023-02-03T16:47:46;10.90;63.00
63013;DHT22;62113;45.624;11.700;2023-02-03T16:50:30;10.90;63.70
63013;DHT22;62113;45.624;11.700;2023-02-03T16:53:36;10.80;63.30
63013;DHT22;62113;45.624;11.700;2023-02-03T16:56:03;10.80;63.60
63013;DHT22;62113;45.624;11.700;2023-02-03T16:58:30;10.70;63.30
63013;DHT22;62113;45.624;11.700;2023-02-03T17:00:58;10.70;63.30
63013;DHT22;62113;45.624;11.700;2023-02-03T17:03:25;10.70;63.10
63013;DHT22;62113;45.624;11.700;2023-02-03T17:05:52;10.70;63.50
63013;DHT22;62113;45.624;11.700;2023-02-03T17:08:20;10.70;63.70
63013;DHT22;62113;45.624;11.700;2023-02-03T17:10:47;10.70;63.40
63013;DHT22;62113;45.624;11.700;2023-02-03T17:13:14;10.60;63.50
63013;DHT22;62113;45.624;11.700;2023-02-03T17:15:44;10.60;63.90
63013;DHT22;62113;45.624;11.700;2023-02-03T17:18:11;10.60;63.90
63013;DHT22;62113;45.624;11.700;2023-02-03T17:20:37;10.50;64.00
63013;DHT22;62113;45.624;11.700;2023-02-03T17:23:03;10.50;63.90
63013;DHT22;62113;45.624;11.700;2023-02-03T17:25:31;10.40;64.00
63013;DHT22;62113;45.624;11.700;2023-02-03T17:27:58;10.40;63.80
63013;DHT22;62113;45.624;11.700;2023-02-03T17:30:23;10.30;63.50
63013;DHT22;62113;45.624;11.700;2023-02-03T17:32:49;10.20;63.70
63013;DHT22;62113;45.624;11.700;2023-02-03T17:35:15;10.10;63.80
63013;DHT22;62113;45.624;11.700;2023-02-03T17:37:40;10.00;64.10
63013;DHT22;62113;45.624;11.700;2023-02-03T17:40:06;10.00;64.10
63013;DHT22;62113;45.624;11.700;2023-02-03T17:42:32;10.00;64.20
63013;DHT22;62113;45.624;11.700;2023-02-03T17:44:57;9.80;64.30
63013;DHT22;62113;45.624;11.700;2023-02-03T17:47:23;9.90;64.30
63013;DHT22;62113;45.624;11.700;2023-02-03T17:49:49;9.80;64.50
63013;DHT22;62113;45.624;11.700;2023-02-03T17:52:14;9.70;64.30
63013;DHT22;62113;45.624;11.700;2023-02-03T17:54:40;9.70;64.50
63013;DHT22;62113;45.624;11.700;2023-02-03T17:57:05;9.70;64.60
63013;DHT22;62113;45.624;11.700;2023-02-03T17:59:31;9.70;64.60
63013;DHT22;62113;45.624;11.700;2023-02-03T18:01:59;9.70;64.80
63013;DHT22;62113;45.624;11.700;2023-02-03T18:04:25;9.70;64.90
63013;DHT22;62113;45.624;11.700;2023-02-03T18:06:50;9.70;64.80
63013;DHT22;62113;45.624;11.700;2023-02-03T18:09:17;9.70;64.80
63013;DHT22;62113;45.624;11.700;2023-02-03T18:11:43;9.60;65.20
63013;DHT22;62113;45.624;11.700;2023-02-03T18:14:11;9.60;65.10
63013;DHT22;62113;45.624;11.700;2023-02-03T18:16:36;9.50;64.80
63013;DHT22;62113;45.624;11.700;2023-02-03T18:19:04;9.50;64.70
63013;DHT22;62113;45.624;11.700;2023-02-03T18:21:30;9.50;64.90
63013;DHT22;62113;45.624;11.700;2023-02-03T18:23:57;9.50;65.20
63013;DHT22;62113;45.624;11.700;2023-02-03T18:26:27;9.50;65.10
63013;DHT22;62113;45.624;11.700;2023-02-03T18:28:54;9.40;65.30
63013;DHT22;62113;45.624;11.700;2023-02-03T18:31:20;9.40;64.80
63013;DHT22;62113;45.624;11.700;2023-02-03T18:33:46;9.30;64.80